Time;durP1;ratioP1;P1;durP2;ratioP2;P2;SDS_P1;SDS_P2;PMS_P1;PMS_P2;Temp;Humidity;BMP_temperature;BMP_pressure;BME280_temperature;BME280_humidity;BME280_pressure;Samples;Min_cycle;Max_cycle;Signal;HPM_P1;HPM_P2
2023/09/21 00:01:41;;;;;;;2.97;2.00;;;;;16.10;93380.00;;;;7395671;19;20524;-75
2023/09/21 00:04:09;;;;;;;3.33;1.90;;;;;16.00;93376.00;;;;7397091;19;20177;-75
2023/09/21 00:06:43;;;;;;;2.60;1.85;;;;;16.00;93378.00;;;;7398322;19;20135;-75
2023/09/21 00:09:11;;;;;;;2.03;1.65;;;;;16.00;93373.00;;;;7400316;19;20458;-74
2023/09/21 00:11:46;;;;;;;2.65;1.83;;;;;15.90;93367.00;;;;7397453;19;20137;-75
2023/09/21 00:14:22;;;;;;;2.30;1.90;;;;;15.90;93370.00;;;;7398722;19;20609;-73
2023/09/21 00:17:12;;;;;;;2.15;1.65;;;;;15.90;93366.00;;;;7396851;19;20163;-75
2023/09/21 00:19:46;;;;;;;3.92;1.63;;;;;15.90;93369.00;;;;7398499;19;20133;-75
2023/09/21 00:22:21;;;;;;;3.92;1.70;;;;;15.80;93368.00;;;;7397019;19;20152;-75
2023/09/21 00:24:49;;;;;;;3.03;1.90;;;;;16.10;93361.00;;;;7397288;19;20117;-74
2023/09/21 00:27:26;;;;;;;3.45;2.03;;;;;16.30;93365.00;;;;7398541;19;20135;-74
2023/09/21 00:29:54;;;;;;;2.05;1.80;;;;;16.50;93355.00;;;;7397681;19;20137;-75
2023/09/21 00:32:29;;;;;;;3.55;1.98;;;;;16.50;93354.00;;;;7396744;19;20492;-75
2023/09/21 00:34:57;;;;;;;2.75;1.85;;;;;16.60;93350.00;;;;7398844;19;20159;-74
2023/09/21 00:37:35;;;;;;;1.83;1.70;;;;;16.60;93349.00;;;;7397139;19;20148;-74
2023/09/21 00:40:18;;;;;;;2.05;1.85;;;;;16.80;93355.00;;;;7395758;19;20160;-74
2023/09/21 00:42:52;;;;;;;3.33;1.75;;;;;16.80;93344.00;;;;7388983;19;20136;-74
2023/09/21 00:45:26;;;;;;;3.05;1.90;;;;;16.50;93347.00;;;;7394919;19;20626;-74
2023/09/21 00:47:59;;;;;;;2.20;1.80;;;;;16.40;93343.00;;;;7398110;19;20191;-75
2023/09/21 00:50:35;;;;;;;6.70;1.67;;;;;16.40;93344.00;;;;7394179;19;20148;-74
2023/09/21 00:53:05;;;;;;;1.80;1.60;;;;;16.30;93333.00;;;;7396769;19;20145;-74
2023/09/21 00:55:40;;;;;;;3.90;1.60;;;;;16.10;93343.00;;;;7397100;19;20171;-75
2023/09/21 00:58:08;;;;;;;3.63;1.70;;;;;16.00;93338.00;;;;7398134;19;20160;-74
2023/09/21 01:00:41;;;;;;;3.35;2.00;;;;;15.90;93330.00;;;;7396872;19;20145;-73
2023/09/21 01:03:16;;;;;;;3.30;1.80;;;;;16.20;93338.00;;;;7393295;19;20125;-73
2023/09/21 01:05:51;;;;;;;2.60;1.90;;;;;16.00;93332.00;;;;7395176;19;20135;-73
2023/09/21 01:08:28;;;;;;;2.80;1.88;;;;;15.90;93335.00;;;;7396174;19;20240;-74
2023/09/21 01:10:57;;;;;;;2.72;1.80;;;;;16.00;93327.00;;;;7395393;19;20140;-75
2023/09/21 01:13:35;;;;;;;4.00;1.70;;;;;16.00;93329.00;;;;7396753;19;20144;-72
2023/09/21 01:16:06;;;;;;;3.72;1.63;;;;;16.00;93328.00;;;;7393626;19;20148;-73
2023/09/21 01:18:40;;;;;;;2.55;1.90;;;;;16.10;93328.00;;;;7395472;19;20136;-74
2023/09/21 01:21:10;;;;;;;2.67;1.90;;;;;16.30;93316.00;;;;7396610;19;20555;-73
2023/09/21 01:23:46;;;;;;;1.90;1.45;;;;;16.20;93310.00;;;;7396079;19;20140;-73
2023/09/21 01:26:21;;;;;;;2.33;2.00;;;;;16.40;93308.00;;;;7397208;19;20128;-73
2023/09/21 01:28:50;;;;;;;5.72;2.10;;;;;16.40;93311.00;;;;7394998;19;20576;-74
2023/09/21 01:31:24;;;;;;;2.10;1.90;;;;;16.50;93314.00;;;;7395710;19;20140;-73
2023/09/21 01:33:54;;;;;;;1.88;1.70;;;;;16.60;93308.00;;;;7395590;19;20153;-73
2023/09/21 01:36:30;;;;;;;3.58;2.22;;;;;16.70;93298.00;;;;7394467;19;20155;-74
2023/09/21 01:38:58;;;;;;;2.28;1.70;;;;;16.80;93305.00;;;;7394270;19;20253;-73
2023/09/21 01:41:38;;;;;;;2.85;1.70;;;;;16.70;93294.00;;;;7388464;19;20167;-73
2023/09/21 01:44:13;;;;;;;6.28;1.90;;;;;16.80;93296.00;;;;7396554;19;20604;-73
2023/09/21 01:46:48;;;;;;;4.03;1.73;;;;;16.80;93291.00;;;;7394340;19;20164;-74
2023/09/21 01:49:18;;;;;;;4.13;1.85;;;;;16.90;93290.00;;;;7393378;19;20580;-72
2023/09/21 01:51:52;;;;;;;6.90;1.95;;;;;17.10;93280.00;;;;7394770;19;20155;-73
2023/09/21 01:54:20;;;;;;;2.92;2.10;;;;;17.30;93280.00;;;;7396747;19;20141;-74
2023/09/21 01:56:55;;;;;;;3.47;1.70;;;;;17.20;93280.00;;;;7395247;19;20148;-73
2023/09/21 01:59:23;;;;;;;2.20;1.80;;;;;17.30;93279.00;;;;7395170;19;20604;-73
2023/09/21 02:01:52;;;;;;;2.45;1.98;;;;;17.50;93272.00;;;;7391393;19;20180;-73
2023/09/21 02:04:26;;;;;;;2.35;2.00;;;;;17.40;93266.00;;;;7395014;19;20628;-73
2023/09/21 02:06:54;;;;;;;2.72;1.80;;;;;17.40;93266.00;;;;7395325;19;20159;-73
2023/09/21 02:09:29;;;;;;;3.38;2.00;;;;;17.50;93260.00;;;;7394347;19;20175;-73
2023/09/21 02:12:03;;;;;;;2.35;2.00;;;;;17.30;93255.00;;;;7395408;19;20167;-75
2023/09/21 02:14:40;;;;;;;1.90;1.58;;;;;17.40;93260.00;;;;7391385;19;20158;-75
2023/09/21 02:17:08;;;;;;;2.58;2.00;;;;;17.40;93253.00;;;;7395549;19;20576;-75
2023/09/21 02:19:43;;;;;;;2.80;1.83;;;;;17.40;93249.00;;;;7393503;19;20185;-75
2023/09/21 02:22:11;;;;;;;3.85;2.03;;;;;17.30;93256.00;;;;7393340;19;20145;-75
2023/09/21 02:24:46;;;;;;;1.98;1.60;;;;;17.30;93249.00;;;;7392035;19;20604;-74
2023/09/21 02:27:21;;;;;;;3.00;1.95;;;;;17.20;93248.00;;;;7393661;19;20778;-74
2023/09/21 02:29:55;;;;;;;2.00;1.80;;;;;17.10;93250.00;;;;7395950;19;20132;-73
2023/09/21 02:32:33;;;;;;;4.25;2.22;;;;;17.20;93248.00;;;;7394446;19;20156;-73
2023/09/21 02:35:03;;;;;;;2.05;1.73;;;;;17.30;93231.00;;;;7388889;19;20140;-74
2023/09/21 02:37:42;;;;;;;2.85;1.95;;;;;17.70;93236.00;;;;7393185;19;20594;-74
2023/09/21 02:40:14;;;;;;;2.88;1.67;;;;;18.00;93232.00;;;;7390127;19;20153;-74
2023/09/21 02:42:53;;;;;;;3.05;1.75;;;;;18.20;93229.00;;;;7391899;19;20490;-76
2023/09/21 02:45:29;;;;;;;2.22;1.77;;;;;18.50;93225.00;;;;7393452;19;20141;-74
2023/09/21 02:48:00;;;;;;;3.33;1.83;;;;;18.30;93230.00;;;;7392924;19;20137;-73
2023/09/21 02:50:36;;;;;;;2.75;1.90;;;;;18.20;93221.00;;;;7393879;19;20148;-74
2023/09/21 02:53:08;;;;;;;1.60;1.50;;;;;18.20;93224.00;;;;7394421;19;20132;-76
2023/09/21 02:55:44;;;;;;;2.17;1.98;;;;;18.10;93218.00;;;;7390882;19;20243;-74
2023/09/21 02:58:19;;;;;;;2.30;1.88;;;;;18.00;93216.00;;;;7392673;19;20529;-75
2023/09/21 03:00:54;;;;;;;4.68;1.67;;;;;18.00;93224.00;;;;7392974;19;20639;-74
2023/09/21 03:03:30;;;;;;;1.65;1.52;;;;;17.80;93217.00;;;;7393389;19;20133;-74
2023/09/21 03:06:07;;;;;;;2.22;1.58;;;;;17.70;93227.00;;;;7392524;19;20196;-74
2023/09/21 03:08:45;;;;;;;3.70;2.00;;;;;17.40;93215.00;;;;7392906;19;20152;-74
2023/09/21 03:11:20;;;;;;;2.88;1.92;;;;;17.10;93216.00;;;;7393942;19;20160;-75
2023/09/21 03:13:55;;;;;;;3.72;1.73;;;;;16.90;93215.00;;;;7390538;19;20200;-75
2023/09/21 03:16:30;;;;;;;6.32;2.00;;;;;16.60;93216.00;;;;7392754;19;20121;-74
2023/09/21 03:19:05;;;;;;;2.60;1.80;;;;;16.50;93228.00;;;;7391590;19;20132;-74
2023/09/21 03:21:44;;;;;;;4.05;2.10;;;;;16.40;93239.00;;;;7392962;19;20117;-74
2023/09/21 03:24:19;;;;;;;3.58;2.13;;;;;16.40;93234.00;;;;7391744;19;20121;-75
2023/09/21 03:26:54;;;;;;;5.05;1.90;;;;;16.30;93229.00;;;;7395512;19;20174;-75
2023/09/21 03:29:31;;;;;;;2.22;1.80;;;;;16.30;93235.00;;;;7403612;19;20544;-75
2023/09/21 03:32:05;;;;;;;4.93;2.17;;;;;16.00;93232.00;;;;7399845;19;20131;-75
2023/09/21 03:34:40;;;;;;;2.83;1.75;;;;;15.70;93236.00;;;;7397497;19;20148;-76
2023/09/21 03:37:09;;;;;;;2.70;2.10;;;;;15.50;93230.00;;;;7401679;19;20595;-76
2023/09/21 03:39:44;;;;;;;3.20;2.28;;;;;15.30;93241.00;;;;7396937;19;20128;-76
2023/09/21 03:42:24;;;;;;;2.45;2.13;;;;;15.20;93226.00;;;;7397126;19;20168;-75
2023/09/21 03:45:03;;;;;;;3.15;2.38;;;;;15.20;93230.00;;;;7398976;19;20145;-75
2023/09/21 03:47:31;;;;;;;4.93;2.20;;;;;15.20;93233.00;;;;7399893;19;20651;-76
2023/09/21 03:50:11;;;;;;;3.20;2.20;;;;;15.10;93228.00;;;;7399719;19;20136;-75
2023/09/21 03:52:50;;;;;;;4.07;2.60;;;;;15.00;93231.00;;;;7398732;19;20200;-75
2023/09/21 03:55:25;;;;;;;3.05;2.20;;;;;15.20;93237.00;;;;7399843;19;20591;-76
2023/09/21 03:57:53;;;;;;;2.95;2.22;;;;;15.40;93226.00;;;;7400005;19;20149;-76
2023/09/21 04:00:41;;;;;;;2.15;1.95;;;;;15.70;93221.00;;;;7398450;19;20630;-77
2023/09/21 04:03:10;;;;;;;4.13;2.05;;;;;16.00;93209.00;;;;7397029;19;20146;-76
2023/09/21 04:05:46;;;;;;;3.15;2.20;;;;;16.00;93208.00;;;;7400892;19;20132;-76
2023/09/21 04:08:14;;;;;;;2.90;1.98;;;;;16.00;93201.00;;;;7395348;19;20575;-76
2023/09/21 04:10:48;;;;;;;2.88;2.15;;;;;15.80;93210.00;;;;7400365;19;20141;-77
2023/09/21 04:13:23;;;;;;;4.43;2.25;;;;;15.80;93192.00;;;;7398924;19;20151;-76
2023/09/21 04:15:58;;;;;;;5.28;4.28;;;;;15.70;93197.00;;;;7398514;19;20184;-75
2023/09/21 04:18:27;;;;;;;6.30;3.78;;;;;15.70;93190.00;;;;7398156;19;20132;-76
2023/09/21 04:21:07;;;;;;;3.78;2.05;;;;;15.70;93178.00;;;;7398586;19;20524;-76
2023/09/21 04:23:48;;;;;;;3.72;2.20;;;;;15.70;93185.00;;;;7396260;19;20137;-76
2023/09/21 04:26:22;;;;;;;2.30;2.00;;;;;15.60;93183.00;;;;7398833;19;20154;-75
2023/09/21 04:28:57;;;;;;;2.78;2.15;;;;;15.60;93187.00;;;;7397642;19;20526;-74
2023/09/21 04:31:32;;;;;;;4.05;1.98;;;;;15.60;93187.00;;;;7397004;19;20152;-76
2023/09/21 04:34:07;;;;;;;2.30;1.80;;;;;15.70;93180.00;;;;7398064;19;20251;-74
2023/09/21 04:36:35;;;;;;;4.32;2.00;;;;;15.80;93184.00;;;;7399490;19;20139;-74
2023/09/21 04:39:14;;;;;;;3.53;2.08;;;;;15.70;93175.00;;;;7395493;19;20560;-74
2023/09/21 04:41:56;;;;;;;3.83;2.25;;;;;15.70;93175.00;;;;7392108;19;20648;-76
2023/09/21 04:44:32;;;;;;;4.80;2.20;;;;;15.80;93178.00;;;;7397315;19;20148;-75
2023/09/21 04:47:07;;;;;;;1.92;1.65;;;;;15.90;93170.00;;;;7397130;19;20148;-75
2023/09/21 04:49:41;;;;;;;4.32;1.85;;;;;16.10;93171.00;;;;7395576;19;20127;-74
2023/09/21 04:52:15;;;;;;;2.10;1.77;;;;;16.20;93172.00;;;;7399236;19;20241;-75
2023/09/21 04:54:48;;;;;;;3.97;1.80;;;;;16.30;93172.00;;;;7395746;19;20148;-74
2023/09/21 04:57:22;;;;;;;2.83;2.10;;;;;16.30;93160.00;;;;7396828;19;20534;-75
2023/09/21 04:59:50;;;;;;;3.10;1.88;;;;;16.20;93168.00;;;;7397854;19;20149;-75
2023/09/21 05:02:24;;;;;;;6.30;2.10;;;;;16.20;93162.00;;;;7391658;19;20164;-75
2023/09/21 05:04:53;;;;;;;2.17;1.83;;;;;16.20;93159.00;;;;7392382;19;20152;-74
2023/09/21 05:07:31;;;;;;;3.38;2.10;;;;;16.20;93169.00;;;;7399926;19;20157;-74
2023/09/21 05:10:07;;;;;;;2.25;1.90;;;;;16.30;93173.00;;;;7398287;19;20141;-74
2023/09/21 05:12:35;;;;;;;2.95;1.85;;;;;16.20;93173.00;;;;7393029;19;20643;-75
2023/09/21 05:15:14;;;;;;;2.40;1.73;;;;;16.10;93174.00;;;;7398440;19;20124;-75
2023/09/21 05:17:43;;;;;;;3.08;1.83;;;;;16.10;93168.00;;;;7399256;19;20525;-75
2023/09/21 05:20:17;;;;;;;2.95;2.10;;;;;16.30;93157.00;;;;7394961;19;20141;-74
2023/09/21 05:22:52;;;;;;;5.43;1.77;;;;;16.30;93160.00;;;;7382624;19;20575;-74
2023/09/21 05:25:20;;;;;;;2.67;2.20;;;;;16.20;93166.00;;;;7384350;19;20137;-73
2023/09/21 05:27:55;;;;;;;3.45;2.00;;;;;16.10;93159.00;;;;7383438;19;20132;-73
2023/09/21 05:30:30;;;;;;;3.28;1.70;;;;;16.10;93159.00;;;;7379746;19;20259;-76
2023/09/21 05:33:01;;;;;;;1.67;1.50;;;;;16.10;93159.00;;;;7381846;19;20140;-76
2023/09/21 05:35:29;;;;;;;2.92;2.17;;;;;16.10;93155.00;;;;7379167;19;20153;-72
2023/09/21 05:38:05;;;;;;;2.50;1.90;;;;;16.30;93156.00;;;;7384035;19;20149;-74
2023/09/21 05:40:46;;;;;;;4.55;2.03;;;;;16.40;93143.00;;;;7383192;19;20176;-74
2023/09/21 05:43:21;;;;;;;6.05;2.22;;;;;16.50;93141.00;;;;7382633;19;20156;-74
2023/09/21 05:45:56;;;;;;;2.70;1.77;;;;;16.40;93145.00;;;;7381335;19;20155;-75
2023/09/21 05:48:32;;;;;;;4.05;2.30;;;;;16.40;93133.00;;;;7383124;19;20144;-74
2023/09/21 05:51:11;;;;;;;2.55;1.92;;;;;16.30;93137.00;;;;7383013;19;20151;-74
2023/09/21 05:53:38;;;;;;;2.05;1.75;;;;;16.30;93136.00;;;;7383381;19;20156;-78
2023/09/21 05:56:13;;;;;;;2.25;1.77;;;;;16.50;93134.00;;;;7385182;19;20128;-73
2023/09/21 05:58:48;;;;;;;4.80;2.03;;;;;16.40;93134.00;;;;7379753;19;20156;-75
2023/09/21 06:01:22;;;;;;;3.58;2.08;;;;;16.50;93134.00;;;;7379062;19;20622;-74
2023/09/21 06:03:53;;;;;;;3.05;2.10;;;;;16.60;93136.00;;;;7380532;19;20156;-74
2023/09/21 06:06:31;;;;;;;2.53;2.08;;;;;16.80;93136.00;;;;7381494;19;20935;-74
2023/09/21 06:08:59;;;;;;;2.40;1.92;;;;;17.10;93133.00;;;;7382375;19;20143;-74
2023/09/21 06:11:34;;;;;;;2.17;1.60;;;;;17.30;93134.00;;;;7383328;19;20603;-75
2023/09/21 06:14:04;;;;;;;2.10;1.90;;;;;17.50;93127.00;;;;7382524;19;20136;-74
2023/09/21 06:16:41;;;;;;;2.28;2.00;;;;;17.60;93124.00;;;;7380596;19;20159;-75
2023/09/21 06:19:11;;;;;;;2.65;1.95;;;;;17.70;93125.00;;;;7379482;19;20124;-76
2023/09/21 06:21:47;;;;;;;2.20;2.00;;;;;18.00;93129.00;;;;7379361;19;20155;-74
2023/09/21 06:24:15;;;;;;;2.58;1.92;;;;;18.10;93124.00;;;;7378970;19;20137;-75
2023/09/21 06:26:52;;;;;;;2.95;2.28;;;;;18.10;93130.00;;;;7381958;19;20128;-73
2023/09/21 06:29:27;;;;;;;1.52;1.42;;;;;18.10;93127.00;;;;7378856;19;20196;-74
2023/09/21 06:31:56;;;;;;;3.90;1.77;;;;;18.20;93121.00;;;;7377593;19;20140;-74
2023/09/21 06:34:42;;;;;;;3.67;1.77;;;;;18.20;93123.00;;;;7376655;19;20493;-76
2023/09/21 06:37:22;;;;;;;2.58;1.67;;;;;18.20;93125.00;;;;7380942;19;20139;-75
2023/09/21 06:39:50;;;;;;;2.20;1.98;;;;;18.20;93124.00;;;;7378937;19;20855;-74
2023/09/21 06:42:31;;;;;;;2.65;2.08;;;;;18.10;93124.00;;;;7378766;19;20158;-75
2023/09/21 06:45:07;;;;;;;3.35;1.90;;;;;18.10;93123.00;;;;7380613;19;20148;-74
2023/09/21 06:47:34;;;;;;;3.08;1.80;;;;;18.10;93125.00;;;;7378510;19;20140;-75
2023/09/21 06:50:13;;;;;;;2.38;1.67;;;;;18.10;93127.00;;;;7377805;19;20159;-73
2023/09/21 06:52:49;;;;;;;2.67;1.70;;;;;17.90;93123.00;;;;7376794;19;20151;-75
2023/09/21 06:55:24;;;;;;;2.10;1.77;;;;;18.00;93129.00;;;;7372790;19;20205;-76
2023/09/21 06:57:58;;;;;;;2.20;1.88;;;;;17.90;93126.00;;;;7378924;19;20168;-76
2023/09/21 07:00:32;;;;;;;3.10;1.80;;;;;18.00;93122.00;;;;7376901;19;20120;-75
2023/09/21 07:03:00;;;;;;;3.70;1.70;;;;;18.20;93114.00;;;;7384099;19;20457;-76
2023/09/21 07:05:28;;;;;;;2.35;1.92;;;;;18.40;93113.00;;;;7386598;19;20166;-75
2023/09/21 07:08:02;;;;;;;1.92;1.77;;;;;18.40;93104.00;;;;7386851;19;20618;-75
2023/09/21 07:10:30;;;;;;;5.05;1.77;;;;;18.50;93104.00;;;;7386926;19;20168;-75
2023/09/21 07:13:07;;;;;;;1.60;1.50;;;;;18.70;93106.00;;;;7383549;19;20537;-75
2023/09/21 07:15:37;;;;;;;2.72;1.70;;;;;18.80;93098.00;;;;7382631;19;20148;-75
2023/09/21 07:18:12;;;;;;;3.88;2.10;;;;;19.00;93090.00;;;;7384399;19;20591;-77
2023/09/21 07:20:41;;;;;;;2.03;1.70;;;;;19.10;93090.00;;;;7385552;19;20137;-75
2023/09/21 07:23:15;;;;;;;2.38;2.00;;;;;19.20;93092.00;;;;7384338;19;20140;-76
2023/09/21 07:25:44;;;;;;;2.17;1.52;;;;;19.40;93090.00;;;;7383577;19;20192;-74
2023/09/21 07:28:18;;;;;;;2.22;1.75;;;;;19.50;93078.00;;;;7387961;19;21289;-76
2023/09/21 07:30:52;;;;;;;3.17;1.90;;;;;19.70;93079.00;;;;7385619;19;20528;-75
2023/09/21 07:33:29;;;;;;;1.55;1.45;;;;;19.90;93076.00;;;;7386405;19;20168;-75
2023/09/21 07:36:05;;;;;;;3.70;1.60;;;;;20.00;93078.00;;;;7386336;19;20137;-75
2023/09/21 07:38:41;;;;;;;2.78;1.63;;;;;20.30;93070.00;;;;7386634;19;20149;-75
2023/09/21 07:41:28;;;;;;;2.47;1.77;;;;;20.50;93072.00;;;;7382409;19;20565;-76
2023/09/21 07:43:56;;;;;;;2.30;1.60;;;;;20.70;93055.00;;;;7383973;19;20777;-76
2023/09/21 07:46:33;;;;;;;2.38;1.70;;;;;21.00;93052.00;;;;7383453;19;20577;-75
2023/09/21 07:49:02;;;;;;;1.58;1.48;;;;;21.40;93048.00;;;;7384013;19;20149;-75
2023/09/21 07:51:36;;;;;;;2.38;1.48;;;;;22.10;93044.00;;;;7386226;19;20121;-76
2023/09/21 07:54:11;;;;;;;2.00;1.58;;;;;22.20;93040.00;;;;7381648;19;21386;-75
2023/09/21 07:56:46;;;;;;;2.33;1.77;;;;;22.70;93040.00;;;;7377553;19;20159;-77
2023/09/21 07:59:15;;;;;;;4.60;1.67;;;;;22.90;93032.00;;;;7384798;19;20129;-75
2023/09/21 08:01:53;;;;;;;1.75;1.55;;;;;22.90;93027.00;;;;7383890;19;20152;-77
2023/09/21 08:04:21;;;;;;;2.15;1.95;;;;;23.40;93034.00;;;;7382289;19;20125;-78
2023/09/21 08:06:59;;;;;;;2.30;1.70;;;;;23.30;93048.00;;;;7381557;19;20149;-78
2023/09/21 08:09:28;;;;;;;4.13;2.00;;;;;23.10;93042.00;;;;7382459;19;20600;-79
2023/09/21 08:12:02;;;;;;;2.22;1.50;;;;;22.80;93043.00;;;;7382840;19;20140;-79
2023/09/21 08:14:36;;;;;;;2.13;1.60;;;;;22.50;93049.00;;;;7383558;19;21642;-78
2023/09/21 08:17:13;;;;;;;2.00;1.65;;;;;22.60;93046.00;;;;7382149;19;20208;-78
2023/09/21 08:19:47;;;;;;;3.10;1.85;;;;;22.40;93059.00;;;;7383397;19;20219;-77
2023/09/21 08:22:18;;;;;;;4.85;1.85;;;;;22.40;93060.00;;;;7384709;19;20169;-76
2023/09/21 08:24:53;;;;;;;2.13;1.60;;;;;22.40;93072.00;;;;7384047;19;20178;-78
2023/09/21 08:27:29;;;;;;;1.80;1.60;;;;;22.50;93072.00;;;;7381829;19;20643;-79
2023/09/21 08:30:04;;;;;;;2.13;1.50;;;;;22.30;93073.00;;;;7386042;19;20523;-76
2023/09/21 08:32:32;;;;;;;2.10;1.40;;;;;22.10;93074.00;;;;7385542;19;20143;-79
2023/09/21 08:35:08;;;;;;;1.45;1.23;;;;;22.10;93062.00;;;;7382082;19;20616;-76
2023/09/21 08:37:36;;;;;;;2.15;1.30;;;;;22.10;93063.00;;;;7383315;19;20145;-78
2023/09/21 08:40:30;;;;;;;1.98;1.40;;;;;22.20;93063.00;;;;7384872;19;20142;-78
2023/09/21 08:43:04;;;;;;;1.65;1.20;;;;;22.20;93054.00;;;;7386814;19;20158;-78
2023/09/21 08:45:40;;;;;;;1.90;1.40;;;;;22.10;93059.00;;;;7382162;19;20130;-78
2023/09/21 08:48:12;;;;;;;1.40;1.30;;;;;22.10;93055.00;;;;7380448;19;21978;-78
2023/09/21 08:50:54;;;;;;;1.58;1.35;;;;;22.10;93048.00;;;;7381724;19;20499;-76
2023/09/21 08:53:25;;;;;;;2.50;1.88;;;;;22.00;93053.00;;;;7385348;19;20150;-78
2023/09/21 08:56:04;;;;;;;4.55;1.88;;;;;22.10;93051.00;;;;7383927;19;20148;-77
2023/09/21 08:58:40;;;;;;;2.67;1.98;;;;;21.90;93057.00;;;;7384458;19;20602;-79
2023/09/21 09:01:14;;;;;;;3.50;1.95;;;;;21.70;93047.00;;;;7380465;19;20191;-76
2023/09/21 09:03:51;;;;;;;2.47;1.70;;;;;21.60;93052.00;;;;7384116;19;20144;-76
2023/09/21 09:06:29;;;;;;;5.80;1.60;;;;;21.80;93050.00;;;;7385055;19;20507;-79
2023/09/21 09:09:05;;;;;;;2.67;2.13;;;;;21.80;93036.00;;;;7382389;19;20516;-77
2023/09/21 09:11:44;;;;;;;3.50;1.80;;;;;22.20;93033.00;;;;7383899;19;20129;-73
2023/09/21 09:14:17;;;;;;;2.63;1.73;;;;;22.40;93027.00;;;;7382491;19;20129;-76
2023/09/21 09:16:51;;;;;;;2.22;1.70;;;;;22.60;93025.00;;;;7384306;19;20560;-74
2023/09/21 09:19:27;;;;;;;2.70;2.08;;;;;22.70;93025.00;;;;7382545;19;20271;-75
2023/09/21 09:22:03;;;;;;;1.65;1.50;;;;;22.60;93032.00;;;;7382153;19;20140;-74
2023/09/21 09:24:33;;;;;;;1.92;1.63;;;;;22.70;93024.00;;;;7381104;19;20615;-74
2023/09/21 09:27:08;;;;;;;3.13;1.85;;;;;22.50;93025.00;;;;7380946;19;20152;-73
2023/09/21 09:29:52;;;;;;;2.88;1.92;;;;;22.60;93018.00;;;;7382470;19;20132;-74
2023/09/21 09:32:37;;;;;;;2.58;1.75;;;;;22.50;93022.00;;;;7382106;19;20137;-74
2023/09/21 09:35:13;;;;;;;1.80;1.40;;;;;22.30;93017.00;;;;7384844;19;20124;-73
2023/09/21 09:37:47;;;;;;;4.20;1.80;;;;;22.20;93013.00;;;;7381633;19;20164;-74
2023/09/21 09:40:37;;;;;;;1.95;1.67;;;;;22.40;93015.00;;;;7376944;19;20607;-78
2023/09/21 09:43:15;;;;;;;2.70;1.77;;;;;22.50;93018.00;;;;7376717;19;20163;-74
2023/09/21 09:45:50;;;;;;;3.85;1.80;;;;;22.60;93018.00;;;;7382347;19;20651;-77
2023/09/21 09:48:25;;;;;;;1.80;1.45;;;;;22.70;93009.00;;;;7381964;19;20136;-74
2023/09/21 09:51:09;;;;;;;3.15;1.50;;;;;23.00;93003.00;;;;7382113;19;20606;-74
2023/09/21 09:53:47;;;;;;;1.92;1.67;;;;;23.10;93013.00;;;;7381599;19;20169;-73
2023/09/21 09:56:22;;;;;;;3.17;2.00;;;;;23.30;93003.00;;;;7380681;19;20188;-75
2023/09/21 09:58:58;;;;;;;2.08;1.80;;;;;23.10;93002.00;;;;7381500;19;20151;-75
2023/09/21 10:01:33;;;;;;;3.97;1.95;;;;;23.20;93000.00;;;;7381955;19;20228;-74
2023/09/21 10:04:11;;;;;;;1.98;1.55;;;;;23.30;92998.00;;;;7380577;19;20152;-75
2023/09/21 10:06:47;;;;;;;5.30;1.80;;;;;23.40;92992.00;;;;7381996;19;20133;-76
2023/09/21 10:09:26;;;;;;;1.60;1.50;;;;;23.30;92992.00;;;;7381020;19;20152;-74
2023/09/21 10:12:03;;;;;;;2.90;1.40;;;;;23.20;92989.00;;;;7382723;19;20138;-76
2023/09/21 10:14:43;;;;;;;2.55;1.30;;;;;23.10;92987.00;;;;7380501;19;20204;-75
2023/09/21 10:17:27;;;;;;;2.83;1.52;;;;;23.00;92991.00;;;;7379509;19;20529;-75
2023/09/21 10:20:14;;;;;;;2.03;1.60;;;;;23.00;92987.00;;;;7378430;19;20646;-74
2023/09/21 10:22:51;;;;;;;2.70;1.60;;;;;23.00;92991.00;;;;7380016;19;20599;-76
2023/09/21 10:25:47;;;;;;;2.65;1.67;;;;;22.70;92995.00;;;;7377727;19;20160;-75
2023/09/21 10:28:34;;;;;;;2.97;1.75;;;;;22.80;92990.00;;;;7379125;19;20145;-75
2023/09/21 10:31:18;;;;;;;2.20;1.70;;;;;22.90;92991.00;;;;7377402;19;20152;-75
2023/09/21 10:33:56;;;;;;;2.97;1.80;;;;;22.80;92988.00;;;;7378346;19;20172;-74
2023/09/21 10:36:36;;;;;;;3.70;1.83;;;;;22.60;92992.00;;;;7382282;19;20151;-75
2023/09/21 10:39:10;;;;;;;2.83;2.08;;;;;22.50;92988.00;;;;7381056;19;20133;-75
2023/09/21 10:41:52;;;;;;;1.80;1.67;;;;;22.40;92991.00;;;;7377643;19;20180;-75
2023/09/21 10:45:04;;;;;;;2.85;1.70;;;;;22.50;92989.00;;;;7379099;19;20125;-75
2023/09/21 10:47:44;;;;;;;1.77;1.67;;;;;22.50;92985.00;;;;7381759;19;20141;-74
2023/09/21 10:50:20;;;;;;;3.70;1.70;;;;;22.60;92975.00;;;;7379097;19;20161;-75
2023/09/21 10:52:57;;;;;;;2.75;1.80;;;;;23.00;92962.00;;;;7378260;19;20140;-75
2023/09/21 10:55:32;;;;;;;3.42;1.50;;;;;23.30;92955.00;;;;7378254;19;20159;-75
2023/09/21 10:58:00;;;;;;;1.92;1.52;;;;;24.20;92944.00;;;;7374850;19;20129;-76
2023/09/21 11:00:34;;;;;;;4.32;2.00;;;;;25.20;92934.00;;;;7378315;19;20137;-76
2023/09/21 11:03:03;;;;;;;3.20;1.73;;;;;26.10;92941.00;;;;7376620;19;20133;-76
2023/09/21 11:05:38;;;;;;;3.78;1.85;;;;;25.60;92941.00;;;;7374966;19;20125;-76
2023/09/21 11:08:14;;;;;;;2.00;1.80;;;;;24.90;92946.00;;;;7376611;19;20152;-76
2023/09/21 11:10:48;;;;;;;3.20;1.85;;;;;24.50;92946.00;;;;7372671;19;20148;-76
2023/09/21 11:13:17;;;;;;;2.50;1.60;;;;;24.20;92940.00;;;;7378534;19;20513;-77
2023/09/21 11:15:54;;;;;;;3.00;1.60;;;;;23.90;92928.00;;;;7378999;19;20152;-77
2023/09/21 11:18:22;;;;;;;3.15;1.77;;;;;23.90;92933.00;;;;7376561;19;20149;-76
2023/09/21 11:20:58;;;;;;;6.75;1.60;;;;;23.70;92925.00;;;;7379003;19;20160;-76
2023/09/21 11:23:35;;;;;;;2.85;1.70;;;;;23.60;92928.00;;;;7381912;19;20614;-76
2023/09/21 11:26:14;;;;;;;3.15;1.77;;;;;23.40;92930.00;;;;7380278;19;20158;-76
2023/09/21 11:28:58;;;;;;;2.47;1.40;;;;;23.20;92923.00;;;;7377575;19;20163;-75
2023/09/21 11:31:30;;;;;;;1.95;1.45;;;;;23.10;92914.00;;;;7377214;19;20140;-74
2023/09/21 11:34:07;;;;;;;3.80;1.65;;;;;23.50;92910.00;;;;7378728;19;20188;-73
2023/09/21 11:36:36;;;;;;;2.05;1.52;;;;;23.70;92903.00;;;;7373406;19;20144;-75
2023/09/21 11:39:12;;;;;;;1.73;1.50;;;;;24.00;92849.00;;;;7376693;19;20158;-74
2023/09/21 11:41:40;;;;;;;1.90;1.60;;;;;24.20;92895.00;;;;7375756;19;20160;-75
2023/09/21 11:44:17;;;;;;;1.67;1.50;;;;;24.50;92889.00;;;;7375837;19;20144;-75
2023/09/21 11:46:44;;;;;;;1.60;1.50;;;;;24.60;92876.00;;;;7376874;19;20249;-74
2023/09/21 11:49:18;;;;;;;3.85;1.63;;;;;24.60;92881.00;;;;7383458;19;20686;-75
2023/09/21 11:51:47;;;;;;;1.83;1.60;;;;;24.70;92878.00;;;;7384751;19;20146;-74
2023/09/21 11:54:22;;;;;;;4.13;1.55;;;;;24.40;92865.00;;;;7379704;19;20172;-74
2023/09/21 11:56:50;;;;;;;1.73;1.63;;;;;24.80;92872.00;;;;7383005;19;20145;-75
2023/09/21 11:59:24;;;;;;;1.65;1.50;;;;;25.20;92868.00;;;;7384476;19;20127;-75
2023/09/21 12:01:56;;;;;;;1.90;1.50;;;;;25.40;92864.00;;;;7383326;19;20536;-74
2023/09/21 12:04:31;;;;;;;1.60;1.50;;;;;25.10;92870.00;;;;7382532;19;20741;-76
2023/09/21 12:07:06;;;;;;;4.60;1.60;;;;;25.00;92861.00;;;;7381745;19;20506;-74
2023/09/21 12:09:40;;;;;;;1.48;1.23;;;;;25.00;92850.00;;;;7386071;19;20149;-76
2023/09/21 12:12:14;;;;;;;4.53;1.60;;;;;24.80;92848.00;;;;7386267;19;20135;-74
2023/09/21 12:14:44;;;;;;;2.05;1.40;;;;;24.80;92858.00;;;;7383711;19;20132;-76
2023/09/21 12:17:19;;;;;;;1.25;1.20;;;;;24.70;92854.00;;;;7381888;19;20148;-76
2023/09/21 12:19:53;;;;;;;1.92;1.50;;;;;24.80;92847.00;;;;7382689;19;20465;-75
2023/09/21 12:22:28;;;;;;;2.75;1.50;;;;;24.90;92835.00;;;;7383742;19;20229;-76
2023/09/21 12:24:56;;;;;;;2.28;1.50;;;;;25.20;92833.00;;;;7383610;19;20149;-76
2023/09/21 12:27:25;;;;;;;4.82;1.45;;;;;25.40;92830.00;;;;7385029;19;20201;-73
2023/09/21 12:30:03;;;;;;;1.92;1.45;;;;;25.90;92812.00;;;;7382616;19;20148;-74
2023/09/21 12:32:41;;;;;;;2.95;1.40;;;;;26.20;92812.00;;;;7382537;19;20535;-77
2023/09/21 12:35:10;;;;;;;1.40;1.30;;;;;26.10;92814.00;;;;7382199;19;20212;-76
2023/09/21 12:37:45;;;;;;;1.63;1.45;;;;;25.90;92813.00;;;;7381478;19;20196;-76
2023/09/21 12:40:15;;;;;;;1.88;1.50;;;;;25.90;92811.00;;;;7379886;19;20132;-75
2023/09/21 12:42:45;;;;;;;2.25;1.55;;;;;25.90;92805.00;;;;7380417;19;20153;-73
2023/09/21 12:45:21;;;;;;;1.98;1.27;;;;;27.20;92790.00;;;;7381178;19;20145;-76
2023/09/21 12:47:56;;;;;;;4.22;1.67;;;;;27.60;92800.00;;;;7381463;19;20572;-74
2023/09/21 12:50:31;;;;;;;1.75;1.48;;;;;26.50;92802.00;;;;7382466;19;20124;-74
2023/09/21 12:53:06;;;;;;;1.48;1.30;;;;;25.70;92801.00;;;;7382842;19;20494;-72
2023/09/21 12:55:40;;;;;;;2.55;1.50;;;;;26.70;92774.00;;;;7380563;19;20140;-76